sensor_id;sensor_type;location;lat;lon;timestamp;pressure;altitude;pressure_sealevel;temperature;humidity
18323;BME280;9287;49.456;11.064;2022-11-25T00:01:14;98166.28;;;3.87;100.00
18323;BME280;9287;49.456;11.064;2022-11-25T00:03:43;98173.69;;;3.95;100.00
18323;BME280;9287;49.456;11.064;2022-11-25T00:06:14;98173.78;;;3.90;100.00
18323;BME280;9287;49.456;11.064;2022-11-25T00:08:43;98168.38;;;3.90;100.00
18323;BME280;9287;49.456;11.064;2022-11-25T00:11:12;98165.59;;;3.95;100.00
18323;BME280;9287;49.456;11.064;2022-11-25T00:13:41;98171.47;;;3.97;100.00
18323;BME280;9287;49.456;11.064;2022-11-25T00:16:13;98164.09;;;3.89;100.00
18323;BME280;9287;49.456;11.064;2022-11-25T00:18:43;98168.88;;;3.92;100.00
18323;BME280;9287;49.456;11.064;2022-11-25T00:21:13;98166.69;;;3.94;100.00
18323;BME280;9287;49.456;11.064;2022-11-25T00:23:41;98169.19;;;3.91;100.00
18323;BME280;9287;49.456;11.064;2022-11-25T00:26:10;98163.28;;;3.89;100.00
18323;BME280;9287;49.456;11.064;2022-11-25T00:28:40;98168.38;;;3.90;100.00
18323;BME280;9287;49.456;11.064;2022-11-25T00:31:11;98162.50;;;3.88;100.00
18323;BME280;9287;49.456;11.064;2022-11-25T00:33:40;98165.19;;;3.88;100.00
18323;BME280;9287;49.456;11.064;2022-11-25T00:36:14;98167.88;;;3.88;100.00
18323;BME280;9287;49.456;11.064;2022-11-25T00:38:42;98167.88;;;3.88;100.00
18323;BME280;9287;49.456;11.064;2022-11-25T00:41:10;98166.72;;;3.80;100.00
18323;BME280;9287;49.456;11.064;2022-11-25T00:43:55;98165.28;;;3.83;100.00
18323;BME280;9287;49.456;11.064;2022-11-25T00:46:42;98166.28;;;3.87;100.00
18323;BME280;9287;49.456;11.064;2022-11-25T00:49:09;98165.50;;;3.87;100.00
18323;BME280;9287;49.456;11.064;2022-11-25T00:51:37;98175.00;;;3.84;100.00
18323;BME280;9287;49.456;11.064;2022-11-25T00:54:05;98174.69;;;3.85;100.00
18323;BME280;9287;49.456;11.064;2022-11-25T00:56:33;98179.78;;;3.87;100.00
18323;BME280;9287;49.456;11.064;2022-11-25T00:59:00;98178.69;;;3.88;100.00
18323;BME280;9287;49.456;11.064;2022-11-25T01:01:28;98179.72;;;3.78;100.00
18323;BME280;9287;49.456;11.064;2022-11-25T01:03:57;98184.94;;;3.75;100.00
18323;BME280;9287;49.456;11.064;2022-11-25T01:06:25;98182.13;;;3.80;100.00
18323;BME280;9287;49.456;11.064;2022-11-25T01:08:53;98170.13;;;3.72;100.00
18323;BME280;9287;49.456;11.064;2022-11-25T01:11:22;98176.94;;;3.70;100.00
18323;BME280;9287;49.456;11.064;2022-11-25T01:13:50;98174.06;;;3.53;100.00
18323;BME280;9287;49.456;11.064;2022-11-25T01:16:27;98172.72;;;3.64;100.00
18323;BME280;9287;49.456;11.064;2022-11-25T01:18:56;98174.72;;;3.72;100.00
18323;BME280;9287;49.456;11.064;2022-11-25T01:21:27;98173.13;;;3.71;100.00
18323;BME280;9287;49.456;11.064;2022-11-25T01:23:55;98182.06;;;3.58;100.00
18323;BME280;9287;49.456;11.064;2022-11-25T01:26:25;98178.75;;;3.61;100.00
18323;BME280;9287;49.456;11.064;2022-11-25T01:28:54;98184.75;;;3.58;100.00
18323;BME280;9287;49.456;11.064;2022-11-25T01:31:24;98177.84;;;3.52;100.00
18323;BME280;9287;49.456;11.064;2022-11-25T01:33:55;98174.94;;;3.48;100.00
18323;BME280;9287;49.456;11.064;2022-11-25T01:36:23;98180.75;;;3.41;100.00
18323;BME280;9287;49.456;11.064;2022-11-25T01:38:54;98184.56;;;3.40;100.00
18323;BME280;9287;49.456;11.064;2022-11-25T01:41:24;98180.34;;;3.34;100.00
18323;BME280;9287;49.456;11.064;2022-11-25T01:44:07;98176.34;;;3.32;100.00
18323;BME280;9287;49.456;11.064;2022-11-25T01:46:51;98176.56;;;3.35;100.00
18323;BME280;9287;49.456;11.064;2022-11-25T01:49:26;98175.16;;;3.24;100.00
18323;BME280;9287;49.456;11.064;2022-11-25T01:52:00;98169.06;;;3.32;100.00
18323;BME280;9287;49.456;11.064;2022-11-25T01:54:34;98161.66;;;3.38;100.00
18323;BME280;9287;49.456;11.064;2022-11-25T01:57:08;98169.19;;;3.27;100.00
18323;BME280;9287;49.456;11.064;2022-11-25T01:59:41;98172.19;;;3.26;100.00
18323;BME280;9287;49.456;11.064;2022-11-25T02:02:10;98171.38;;;3.25;100.00
18323;BME280;9287;49.456;11.064;2022-11-25T02:04:39;98173.16;;;3.16;100.00
18323;BME280;9287;49.456;11.064;2022-11-25T02:07:11;98166.16;;;3.01;100.00
18323;BME280;9287;49.456;11.064;2022-11-25T02:09:43;98169.56;;;3.07;100.00
18323;BME280;9287;49.456;11.064;2022-11-25T02:12:13;98179.34;;;3.03;100.00
18323;BME280;9287;49.456;11.064;2022-11-25T02:14:42;98174.97;;;3.07;100.00
18323;BME280;9287;49.456;11.064;2022-11-25T02:17:10;98177.75;;;3.02;100.00
18323;BME280;9287;49.456;11.064;2022-11-25T02:19:45;98184.81;;;2.98;100.00
18323;BME280;9287;49.456;11.064;2022-11-25T02:22:24;98179.13;;;2.86;100.00
18323;BME280;9287;49.456;11.064;2022-11-25T02:24:57;98176.94;;;2.88;100.00
18323;BME280;9287;49.456;11.064;2022-11-25T02:27:28;98183.72;;;2.85;100.00
18323;BME280;9287;49.456;11.064;2022-11-25T02:29:56;98183.94;;;2.89;100.00
18323;BME280;9287;49.456;11.064;2022-11-25T02:32:24;98183.94;;;2.89;100.00
18323;BME280;9287;49.456;11.064;2022-11-25T02:34:51;98184.94;;;2.93;100.00
18323;BME280;9287;49.456;11.064;2022-11-25T02:37:20;98182.03;;;2.89;100.00
18323;BME280;9287;49.456;11.064;2022-11-25T02:39:50;98174.16;;;2.93;100.00
18323;BME280;9287;49.456;11.064;2022-11-25T02:42:20;98173.13;;;2.89;100.00
18323;BME280;9287;49.456;11.064;2022-11-25T02:44:50;98169.94;;;2.87;100.00
18323;BME280;9287;49.456;11.064;2022-11-25T02:47:18;98172.50;;;2.78;100.00
18323;BME280;9287;49.456;11.064;2022-11-25T02:49:45;98167.31;;;2.82;100.00
18323;BME280;9287;49.456;11.064;2022-11-25T02:52:13;98169.50;;;2.79;100.00
18323;BME280;9287;49.456;11.064;2022-11-25T02:54:41;98165.72;;;2.80;100.00
18323;BME280;9287;49.456;11.064;2022-11-25T02:57:09;98174.31;;;2.83;100.00
18323;BME280;9287;49.456;11.064;2022-11-25T02:59:37;98173.31;;;2.78;100.00
18323;BME280;9287;49.456;11.064;2022-11-25T03:02:06;98175.91;;;2.84;100.00
18323;BME280;9287;49.456;11.064;2022-11-25T03:04:33;98172.56;;;2.92;100.00
18323;BME280;9287;49.456;11.064;2022-11-25T03:07:01;98175.13;;;2.97;100.00
18323;BME280;9287;49.456;11.064;2022-11-25T03:09:29;98173.72;;;2.86;100.00
18323;BME280;9287;49.456;11.064;2022-11-25T03:11:57;98183.72;;;2.85;100.00
18323;BME280;9287;49.456;11.064;2022-11-25T03:14:42;98182.69;;;2.81;100.00
18323;BME280;9287;49.456;11.064;2022-11-25T03:17:11;98184.72;;;2.75;100.00
18323;BME280;9287;49.456;11.064;2022-11-25T03:19:39;98178.28;;;2.71;100.00
18323;BME280;9287;49.456;11.064;2022-11-25T03:22:06;98184.72;;;2.75;100.00
18323;BME280;9287;49.456;11.064;2022-11-25T03:24:34;98182.25;;;2.60;100.00
18323;BME280;9287;49.456;11.064;2022-11-25T03:27:03;98183.38;;;2.59;100.00
18323;BME280;9287;49.456;11.064;2022-11-25T03:29:30;98184.25;;;2.55;100.00
18323;BME280;9287;49.456;11.064;2022-11-25T03:31:58;98178.63;;;2.51;100.00
18323;BME280;9287;49.456;11.064;2022-11-25T03:34:32;98174.84;;;2.52;100.00
18323;BME280;9287;49.456;11.064;2022-11-25T03:37:00;98184.94;;;2.60;100.00
18323;BME280;9287;49.456;11.064;2022-11-25T03:39:27;98193.72;;;2.52;100.00
18323;BME280;9287;49.456;11.064;2022-11-25T03:41:55;98184.63;;;2.48;100.00
18323;BME280;9287;49.456;11.064;2022-11-25T03:44:23;98186.72;;;2.51;100.00
18323;BME280;9287;49.456;11.064;2022-11-25T03:46:50;98184.69;;;2.43;100.00
18323;BME280;9287;49.456;11.064;2022-11-25T03:49:18;98191.97;;;2.42;100.00
18323;BME280;9287;49.456;11.064;2022-11-25T03:51:48;98190.19;;;2.38;100.00
18323;BME280;9287;49.456;11.064;2022-11-25T03:54:16;98190.41;;;2.41;100.00
18323;BME280;9287;49.456;11.064;2022-11-25T03:56:44;98191.78;;;2.39;100.00
18323;BME280;9287;49.456;11.064;2022-11-25T03:59:12;98187.38;;;2.43;100.00
18323;BME280;9287;49.456;11.064;2022-11-25T04:01:39;98185.81;;;2.42;100.00
18323;BME280;9287;49.456;11.064;2022-11-25T04:04:10;98185.69;;;2.47;100.00
18323;BME280;9287;49.456;11.064;2022-11-25T04:06:37;98180.41;;;2.42;100.00
18323;BME280;9287;49.456;11.064;2022-11-25T04:09:08;98188.56;;;2.37;100.00
18323;BME280;9287;49.456;11.064;2022-11-25T04:11:37;98182.38;;;2.36;100.00
18323;BME280;9287;49.456;11.064;2022-11-25T04:14:22;98179.75;;;2.31;100.00
18323;BME280;9287;49.456;11.064;2022-11-25T04:16:50;98177.25;;;2.21;100.00
18323;BME280;9287;49.456;11.064;2022-11-25T04:19:18;98183.56;;;2.12;100.00
18323;BME280;9287;49.456;11.064;2022-11-25T04:21:45;98182.91;;;2.20;100.00
18323;BME280;9287;49.456;11.064;2022-11-25T04:24:19;98185.75;;;2.09;100.00
18323;BME280;9287;49.456;11.064;2022-11-25T04:26:47;98179.63;;;2.23;100.00
18323;BME280;9287;49.456;11.064;2022-11-25T04:29:15;98171.19;;;2.10;100.00
18323;BME280;9287;49.456;11.064;2022-11-25T04:31:43;98172.72;;;2.17;100.00
18323;BME280;9287;49.456;11.064;2022-11-25T04:34:11;98170.47;;;2.05;100.00
18323;BME280;9287;49.456;11.064;2022-11-25T04:36:39;98172.72;;;2.17;100.00
18323;BME280;9287;49.456;11.064;2022-11-25T04:39:06;98178.03;;;2.22;100.00
18323;BME280;9287;49.456;11.064;2022-11-25T04:41:35;98174.25;;;2.23;100.00
18323;BME280;9287;49.456;11.064;2022-11-25T04:44:03;98166.31;;;2.13;100.00
18323;BME280;9287;49.456;11.064;2022-11-25T04:46:33;98169.00;;;2.13;100.00
18323;BME280;9287;49.456;11.064;2022-11-25T04:49:02;98178.69;;;2.14;100.00
18323;BME280;9287;49.456;11.064;2022-11-25T04:51:30;98177.25;;;2.02;100.00
18323;BME280;9287;49.456;11.064;2022-11-25T04:53:58;98181.84;;;2.02;100.00
18323;BME280;9287;49.456;11.064;2022-11-25T04:56:26;98181.38;;;1.95;100.00
18323;BME280;9287;49.456;11.064;2022-11-25T04:58:55;98185.41;;;1.97;100.00
18323;BME280;9287;49.456;11.064;2022-11-25T05:01:40;98173.59;;;1.93;100.00
18323;BME280;9287;49.456;11.064;2022-11-25T05:04:08;98175.19;;;1.94;100.00
18323;BME280;9287;49.456;11.064;2022-11-25T05:06:35;98162.41;;;1.86;100.00
18323;BME280;9287;49.456;11.064;2022-11-25T05:09:03;98162.81;;;1.93;100.00
18323;BME280;9287;49.456;11.064;2022-11-25T05:11:31;98163.28;;;2.00;100.00
18323;BME280;9287;49.456;11.064;2022-11-25T05:14:00;98171.28;;;2.05;100.00
18323;BME280;9287;49.456;11.064;2022-11-25T05:16:28;98179.06;;;2.07;100.00
18323;BME280;9287;49.456;11.064;2022-11-25T05:18:56;98181.25;;;2.05;100.00
18323;BME280;9287;49.456;11.064;2022-11-25T05:21:23;98179.94;;;2.02;100.00
18323;BME280;9287;49.456;11.064;2022-11-25T05:23:52;98178.91;;;1.98;100.00
18323;BME280;9287;49.456;11.064;2022-11-25T05:26:21;98175.66;;;2.01;100.00
18323;BME280;9287;49.456;11.064;2022-11-25T05:28:49;98178.97;;;1.93;100.00
18323;BME280;9287;49.456;11.064;2022-11-25T05:31:18;98175.78;;;1.91;100.00
18323;BME280;9287;49.456;11.064;2022-11-25T05:33:46;98165.22;;;1.95;100.00
18323;BME280;9287;49.456;11.064;2022-11-25T05:36:13;98181.03;;;2.01;100.00
18323;BME280;9287;49.456;11.064;2022-11-25T05:38:41;98178.63;;;2.00;100.00
18323;BME280;9287;49.456;11.064;2022-11-25T05:41:09;98181.25;;;1.86;100.00
18323;BME280;9287;49.456;11.064;2022-11-25T05:43:37;98180.16;;;1.87;100.00
18323;BME280;9287;49.456;11.064;2022-11-25T05:46:05;98179.06;;;1.88;100.00
18323;BME280;9287;49.456;11.064;2022-11-25T05:48:34;98188.16;;;1.92;100.00
18323;BME280;9287;49.456;11.064;2022-11-25T05:51:03;98191.13;;;1.91;100.00
18323;BME280;9287;49.456;11.064;2022-11-25T05:53:31;98190.25;;;1.77;100.00
18323;BME280;9287;49.456;11.064;2022-11-25T05:56:00;98188.31;;;1.82;100.00
18323;BME280;9287;49.456;11.064;2022-11-25T05:58:29;98188.06;;;1.79;100.00
18323;BME280;9287;49.456;11.064;2022-11-25T06:00:57;98188.53;;;1.86;100.00
18323;BME280;9287;49.456;11.064;2022-11-25T06:03:25;98183.94;;;1.86;100.00
18323;BME280;9287;49.456;11.064;2022-11-25T06:05:56;98185.31;;;2.02;100.00
18323;BME280;9287;49.456;11.064;2022-11-25T06:08:24;98179.44;;;2.00;100.00
18323;BME280;9287;49.456;11.064;2022-11-25T06:10:52;98183.00;;;1.96;100.00
18323;BME280;9287;49.456;11.064;2022-11-25T06:13:20;98178.09;;;1.79;100.00
18323;BME280;9287;49.456;11.064;2022-11-25T06:15:48;98183.84;;;1.91;100.00
18323;BME280;9287;49.456;11.064;2022-11-25T06:18:17;98167.22;;;1.89;100.00
18323;BME280;9287;49.456;11.064;2022-11-25T06:20:44;98174.56;;;1.84;100.00
18323;BME280;9287;49.456;11.064;2022-11-25T06:23:23;98178.34;;;1.83;100.00
18323;BME280;9287;49.456;11.064;2022-11-25T06:25:51;98185.53;;;1.87;100.00
18323;BME280;9287;49.456;11.064;2022-11-25T06:28:19;98185.16;;;1.94;100.00
18323;BME280;9287;49.456;11.064;2022-11-25T06:30:46;98184.25;;;2.03;100.00
18323;BME280;9287;49.456;11.064;2022-11-25T06:33:14;98195.00;;;2.03;100.00
18323;BME280;9287;49.456;11.064;2022-11-25T06:35:42;98192.22;;;2.08;100.00
18323;BME280;9287;49.456;11.064;2022-11-25T06:38:10;98204.53;;;2.15;100.00
18323;BME280;9287;49.456;11.064;2022-11-25T06:40:39;98200.97;;;2.19;100.00
18323;BME280;9287;49.456;11.064;2022-11-25T06:43:06;98207.69;;;2.22;100.00
18323;BME280;9287;49.456;11.064;2022-11-25T06:45:34;98209.69;;;2.30;100.00
18323;BME280;9287;49.456;11.064;2022-11-25T06:48:02;98207.16;;;2.38;100.00
18323;BME280;9287;49.456;11.064;2022-11-25T06:50:30;98205.78;;;2.41;100.00
18323;BME280;9287;49.456;11.064;2022-11-25T06:52:59;98209.56;;;2.40;100.00
18323;BME280;9287;49.456;11.064;2022-11-25T06:55:27;98214.94;;;2.40;100.00
18323;BME280;9287;49.456;11.064;2022-11-25T06:57:56;98228.19;;;2.55;100.00
18323;BME280;9287;49.456;11.064;2022-11-25T07:00:44;98237.19;;;2.64;100.00
18323;BME280;9287;49.456;11.064;2022-11-25T07:03:11;98228.59;;;2.62;100.00
18323;BME280;9287;49.456;11.064;2022-11-25T07:05:39;98233.25;;;2.75;100.00
18323;BME280;9287;49.456;11.064;2022-11-25T07:08:07;98236.13;;;2.79;100.00
18323;BME280;9287;49.456;11.064;2022-11-25T07:10:35;98231.78;;;2.64;100.00
18323;BME280;9287;49.456;11.064;2022-11-25T07:13:04;98237.19;;;2.64;100.00
18323;BME280;9287;49.456;11.064;2022-11-25T07:15:33;98240.38;;;2.66;100.00
18323;BME280;9287;49.456;11.064;2022-11-25T07:18:00;98236.41;;;2.77;100.00
18323;BME280;9287;49.456;11.064;2022-11-25T07:20:28;98242.31;;;2.79;100.00
18323;BME280;9287;49.456;11.064;2022-11-25T07:22:56;98235.50;;;2.68;100.00
18323;BME280;9287;49.456;11.064;2022-11-25T07:25:27;98231.03;;;2.77;100.00
18323;BME280;9287;49.456;11.064;2022-11-25T07:27:56;98228.47;;;2.86;100.00
18323;BME280;9287;49.456;11.064;2022-11-25T07:30:25;98239.28;;;3.00;100.00
18323;BME280;9287;49.456;11.064;2022-11-25T07:33:13;98233.50;;;2.93;100.00
18323;BME280;9287;49.456;11.064;2022-11-25T07:35:41;98244.09;;;3.03;100.00
18323;BME280;9287;49.456;11.064;2022-11-25T07:38:09;98233.72;;;3.10;100.00
18323;BME280;9287;49.456;11.064;2022-11-25T07:40:36;98242.13;;;3.22;100.00
18323;BME280;9287;49.456;11.064;2022-11-25T07:43:04;98250.31;;;3.17;100.00
18323;BME280;9287;49.456;11.064;2022-11-25T07:45:34;98246.72;;;3.22;100.00
18323;BME280;9287;49.456;11.064;2022-11-25T07:48:02;98263.13;;;3.39;100.00
18323;BME280;9287;49.456;11.064;2022-11-25T07:50:32;98260.94;;;3.27;100.00
18323;BME280;9287;49.456;11.064;2022-11-25T07:52:59;98260.94;;;3.55;100.00
18323;BME280;9287;49.456;11.064;2022-11-25T07:55:27;98269.72;;;3.46;100.00
18323;BME280;9287;49.456;11.064;2022-11-25T07:57:55;98256.50;;;4.00;100.00
18323;BME280;9287;49.456;11.064;2022-11-25T08:00:23;98266.91;;;4.06;100.00
18323;BME280;9287;49.456;11.064;2022-11-25T08:02:52;98270.53;;;4.15;100.00
18323;BME280;9287;49.456;11.064;2022-11-25T08:05:20;98273.69;;;4.17;100.00
18323;BME280;9287;49.456;11.064;2022-11-25T08:07:48;98282.03;;;4.79;100.00
18323;BME280;9287;49.456;11.064;2022-11-25T08:10:16;98276.22;;;6.36;100.00
18323;BME280;9287;49.456;11.064;2022-11-25T08:12:43;98271.41;;;5.76;100.00
18323;BME280;9287;49.456;11.064;2022-11-25T08:15:11;98280.06;;;6.35;100.00
18323;BME280;9287;49.456;11.064;2022-11-25T08:17:39;98278.13;;;6.61;100.00
18323;BME280;9287;49.456;11.064;2022-11-25T08:20:09;98272.34;;;6.11;100.00
18323;BME280;9287;49.456;11.064;2022-11-25T08:22:36;98272.53;;;5.75;100.00
18323;BME280;9287;49.456;11.064;2022-11-25T08:25:05;98276.75;;;5.19;100.00
18323;BME280;9287;49.456;11.064;2022-11-25T08:27:33;98276.63;;;5.02;100.00
18323;BME280;9287;49.456;11.064;2022-11-25T08:30:00;98269.75;;;4.73;100.00
18323;BME280;9287;49.456;11.064;2022-11-25T08:32:28;98257.91;;;4.69;100.00
18323;BME280;9287;49.456;11.064;2022-11-25T08:34:56;98262.97;;;4.62;100.00
18323;BME280;9287;49.456;11.064;2022-11-25T08:37:25;98259.13;;;5.08;100.00
18323;BME280;9287;49.456;11.064;2022-11-25T08:39:53;98269.31;;;6.04;100.00
18323;BME280;9287;49.456;11.064;2022-11-25T08:42:22;98265.66;;;6.94;100.00
18323;BME280;9287;49.456;11.064;2022-11-25T08:44:51;98265.63;;;7.20;100.00
18323;BME280;9287;49.456;11.064;2022-11-25T08:47:19;98264.50;;;7.77;100.00
18323;BME280;9287;49.456;11.064;2022-11-25T08:49:49;98278.75;;;7.65;100.00
18323;BME280;9287;49.456;11.064;2022-11-25T08:52:17;98275.06;;;8.58;96.14
18323;BME280;9287;49.456;11.064;2022-11-25T08:54:47;98281.38;;;7.91;99.39
18323;BME280;9287;49.456;11.064;2022-11-25T08:57:15;98279.53;;;8.62;91.72
18323;BME280;9287;49.456;11.064;2022-11-25T08:59:43;98279.91;;;9.27;87.35
18323;BME280;9287;49.456;11.064;2022-11-25T09:02:14;98287.09;;;7.98;96.76
18323;BME280;9287;49.456;11.064;2022-11-25T09:04:42;98288.50;;;8.33;95.01
18323;BME280;9287;49.456;11.064;2022-11-25T09:07:10;98278.09;;;9.31;83.46
18323;BME280;9287;49.456;11.064;2022-11-25T09:09:38;98286.00;;;7.90;90.54
18323;BME280;9287;49.456;11.064;2022-11-25T09:12:07;98286.13;;;8.32;92.15
18323;BME280;9287;49.456;11.064;2022-11-25T09:14:35;98285.47;;;7.97;95.77
18323;BME280;9287;49.456;11.064;2022-11-25T09:17:07;98283.06;;;7.75;98.78
18323;BME280;9287;49.456;11.064;2022-11-25T09:19:36;98283.63;;;7.89;97.23
18323;BME280;9287;49.456;11.064;2022-11-25T09:22:05;98293.03;;;7.53;96.92
18323;BME280;9287;49.456;11.064;2022-11-25T09:24:33;98295.31;;;8.69;92.99
18323;BME280;9287;49.456;11.064;2022-11-25T09:27:01;98300.84;;;8.81;88.28
18323;BME280;9287;49.456;11.064;2022-11-25T09:29:31;98302.84;;;9.26;84.97
18323;BME280;9287;49.456;11.064;2022-11-25T09:31:59;98302.47;;;8.94;84.95
18323;BME280;9287;49.456;11.064;2022-11-25T09:34:26;98300.28;;;8.67;86.58
18323;BME280;9287;49.456;11.064;2022-11-25T09:36:54;98302.47;;;9.72;80.83
18323;BME280;9287;49.456;11.064;2022-11-25T09:39:22;98294.84;;;9.21;80.95
18323;BME280;9287;49.456;11.064;2022-11-25T09:42:03;98279.94;;;8.14;89.52
18323;BME280;9287;49.456;11.064;2022-11-25T09:45:02;98273.31;;;8.03;90.80
18323;BME280;9287;49.456;11.064;2022-11-25T09:48:10;98276.41;;;7.46;94.58
18323;BME280;9287;49.456;11.064;2022-11-25T09:50:51;98286.06;;;7.35;99.26
18323;BME280;9287;49.456;11.064;2022-11-25T09:53:29;98289.88;;;7.34;99.95
18323;BME280;9287;49.456;11.064;2022-11-25T09:56:03;98286.53;;;7.28;100.00
18323;BME280;9287;49.456;11.064;2022-11-25T09:58:40;98288.13;;;7.29;100.00
18323;BME280;9287;49.456;11.064;2022-11-25T10:01:16;98291.22;;;6.76;100.00
18323;BME280;9287;49.456;11.064;2022-11-25T10:03:48;98292.50;;;6.96;100.00
18323;BME280;9287;49.456;11.064;2022-11-25T10:06:20;98287.38;;;8.34;99.00
18323;BME280;9287;49.456;11.064;2022-11-25T10:08:52;98290.69;;;9.81;83.71
18323;BME280;9287;49.456;11.064;2022-11-25T10:11:29;98282.97;;;10.43;71.40
18323;BME280;9287;49.456;11.064;2022-11-25T10:14:02;98283.50;;;9.52;83.38
18323;BME280;9287;49.456;11.064;2022-11-25T10:16:42;98288.66;;;8.99;80.94
18323;BME280;9287;49.456;11.064;2022-11-25T10:19:23;98277.50;;;8.92;84.26
18323;BME280;9287;49.456;11.064;2022-11-25T10:21:53;98274.78;;;9.25;81.60
18323;BME280;9287;49.456;11.064;2022-11-25T10:24:21;98273.28;;;9.16;83.45
18323;BME280;9287;49.456;11.064;2022-11-25T10:26:56;98277.19;;;9.27;82.76
18323;BME280;9287;49.456;11.064;2022-11-25T10:29:28;98272.22;;;8.75;87.16
18323;BME280;9287;49.456;11.064;2022-11-25T10:32:17;98264.97;;;9.57;82.21
18323;BME280;9287;49.456;11.064;2022-11-25T10:34:49;98272.34;;;8.58;84.72
18323;BME280;9287;49.456;11.064;2022-11-25T10:37:25;98266.91;;;9.12;85.98
18323;BME280;9287;49.456;11.064;2022-11-25T10:39:53;98274.88;;;9.74;78.24
18323;BME280;9287;49.456;11.064;2022-11-25T10:42:23;98280.91;;;9.92;79.66
18323;BME280;9287;49.456;11.064;2022-11-25T10:44:54;98272.94;;;9.74;78.55
18323;BME280;9287;49.456;11.064;2022-11-25T10:47:33;98270.22;;;10.48;75.90
18323;BME280;9287;49.456;11.064;2022-11-25T10:50:11;98265.16;;;10.62;70.96
18323;BME280;9287;49.456;11.064;2022-11-25T10:52:47;98266.13;;;10.41;72.19
18323;BME280;9287;49.456;11.064;2022-11-25T10:55:19;98252.66;;;9.39;79.31
18323;BME280;9287;49.456;11.064;2022-11-25T10:57:49;98256.78;;;9.45;79.05
18323;BME280;9287;49.456;11.064;2022-11-25T11:00:26;98257.22;;;9.02;83.38
18323;BME280;9287;49.456;11.064;2022-11-25T11:02:59;98267.06;;;9.27;79.95
18323;BME280;9287;49.456;11.064;2022-11-25T11:05:29;98269.81;;;8.53;86.36
18323;BME280;9287;49.456;11.064;2022-11-25T11:08:18;98266.09;;;8.36;89.03
18323;BME280;9287;49.456;11.064;2022-11-25T11:11:08;98260.47;;;8.12;92.01
18323;BME280;9287;49.456;11.064;2022-11-25T11:13:36;98261.38;;;7.95;93.64
18323;BME280;9287;49.456;11.064;2022-11-25T11:16:20;98260.84;;;8.02;94.26
18323;BME280;9287;49.456;11.064;2022-11-25T11:18:52;98260.09;;;7.93;96.36
18323;BME280;9287;49.456;11.064;2022-11-25T11:21:23;98257.00;;;7.74;98.28
18323;BME280;9287;49.456;11.064;2022-11-25T11:23:52;98253.22;;;7.95;96.94
18323;BME280;9287;49.456;11.064;2022-11-25T11:26:30;98264.03;;;7.75;100.00
18323;BME280;9287;49.456;11.064;2022-11-25T11:29:01;98260.34;;;7.79;99.93
18323;BME280;9287;49.456;11.064;2022-11-25T11:31:32;98266.66;;;7.92;99.10
18323;BME280;9287;49.456;11.064;2022-11-25T11:34:21;98264.88;;;7.96;100.00
18323;BME280;9287;49.456;11.064;2022-11-25T11:37:05;98267.13;;;8.23;98.71
18323;BME280;9287;49.456;11.064;2022-11-25T11:39:53;98266.28;;;8.02;100.00
18323;BME280;9287;49.456;11.064;2022-11-25T11:42:32;98266.66;;;8.21;98.54
18323;BME280;9287;49.456;11.064;2022-11-25T11:45:15;98263.63;;;8.14;99.13
18323;BME280;9287;49.456;11.064;2022-11-25T11:47:58;98273.41;;;7.86;100.00
18323;BME280;9287;49.456;11.064;2022-11-25T11:50:36;98270.41;;;7.79;100.00
18323;BME280;9287;49.456;11.064;2022-11-25T11:53:09;98270.34;;;7.49;100.00
18323;BME280;9287;49.456;11.064;2022-11-25T11:56:00;98274.69;;;7.80;100.00
18323;BME280;9287;49.456;11.064;2022-11-25T11:58:58;98280.19;;;7.62;100.00
18323;BME280;9287;49.456;11.064;2022-11-25T12:01:36;98273.47;;;7.68;100.00
18323;BME280;9287;49.456;11.064;2022-11-25T12:04:15;98274.25;;;7.78;100.00
18323;BME280;9287;49.456;11.064;2022-11-25T12:06:59;98276.50;;;8.05;100.00
18323;BME280;9287;49.456;11.064;2022-11-25T12:09:30;98276.28;;;7.81;100.00
18323;BME280;9287;49.456;11.064;2022-11-25T12:12:02;98275.94;;;7.91;100.00
18323;BME280;9287;49.456;11.064;2022-11-25T12:14:35;98283.38;;;8.02;100.00
18323;BME280;9287;49.456;11.064;2022-11-25T12:17:10;98274.28;;;7.69;100.00
18323;BME280;9287;49.456;11.064;2022-11-25T12:19:43;98272.44;;;7.82;100.00
18323;BME280;9287;49.456;11.064;2022-11-25T12:22:22;98275.16;;;7.82;100.00
18323;BME280;9287;49.456;11.064;2022-11-25T12:24:59;98261.56;;;7.82;100.00
18323;BME280;9287;49.456;11.064;2022-11-25T12:27:33;98263.25;;;7.65;100.00
18323;BME280;9287;49.456;11.064;2022-11-25T12:30:04;98265.53;;;7.55;100.00
18323;BME280;9287;49.456;11.064;2022-11-25T12:32:56;98262.53;;;7.86;100.00
18323;BME280;9287;49.456;11.064;2022-11-25T12:35:33;98262.66;;;7.89;100.00
18323;BME280;9287;49.456;11.064;2022-11-25T12:38:17;98278.84;;;7.86;100.00
18323;BME280;9287;49.456;11.064;2022-11-25T12:40:54;98276.97;;;8.07;100.00
18323;BME280;9287;49.456;11.064;2022-11-25T12:43:27;98278.59;;;7.99;100.00
18323;BME280;9287;49.456;11.064;2022-11-25T12:46:06;98280.03;;;7.97;100.00
18323;BME280;9287;49.456;11.064;2022-11-25T12:48:42;98277.81;;;7.99;100.00
18323;BME280;9287;49.456;11.064;2022-11-25T12:51:23;98269.47;;;8.04;100.00
18323;BME280;9287;49.456;11.064;2022-11-25T12:54:05;98281.44;;;8.12;100.00
18323;BME280;9287;49.456;11.064;2022-11-25T12:56:55;98283.34;;;8.11;100.00
18323;BME280;9287;49.456;11.064;2022-11-25T12:59:49;98291.03;;;8.09;100.00
18323;BME280;9287;49.456;11.064;2022-11-25T13:02:58;98292.06;;;8.25;100.00
18323;BME280;9287;49.456;11.064;2022-11-25T13:05:53;98295.16;;;7.86;100.00
18323;BME280;9287;49.456;11.064;2022-11-25T13:08:41;98296.34;;;7.97;100.00
18323;BME280;9287;49.456;11.064;2022-11-25T13:11:26;98295.34;;;8.10;100.00
18323;BME280;9287;49.456;11.064;2022-11-25T13:14:03;98295.78;;;8.21;100.00
18323;BME280;9287;49.456;11.064;2022-11-25T13:16:41;98304.34;;;8.02;100.00
18323;BME280;9287;49.456;11.064;2022-11-25T13:19:15;98309.13;;;8.05;100.00
18323;BME280;9287;49.456;11.064;2022-11-25T13:21:55;98320.84;;;7.97;100.00
18323;BME280;9287;49.456;11.064;2022-11-25T13:24:30;98312.97;;;8.04;100.00
18323;BME280;9287;49.456;11.064;2022-11-25T13:27:00;98323.78;;;8.21;100.00